Gujrat Weather



Gujrat's Current Weather

Temprature 14o smoke

smoke

Rain: 0 %

Min Temprature14o
Max Temprature14o
Humidity76
Wind Speed0.55 m/h
Sun Rise06:17:44
Sun Set17:16:58
Current Time: 28-Oct-2020 07:36:31
Lat/Lon: 32.57, 74.08




Gujrat's Geo Location



Gujrat's Weather Forecast

Time Overall Temp Min Temp Max Temp Humidity Wind Speed Rain
28-Oct-2020 (Wed)
08:00:00 clear sky 17.120 17.120 20.390 50 0.55 m/h 0 %
11:00:00 clear sky 26.520 26.520 29.970 26 0.62 m/h 0 %
14:00:00 clear sky 30.900 30.900 32.060 15 2.16 m/h 0 %
17:00:00 clear sky 26.160 26.160 26.260 16 1.34 m/h 0 %
20:00:00 clear sky 21.900 21.900 21.900 21 1.51 m/h 0 %
23:00:00 clear sky 19.220 19.220 19.220 25 2.8 m/h 0 %
29-Oct-2020 (Thu)
02:00:00 clear sky 17.370 17.370 17.370 29 1.76 m/h 0 %
05:00:00 clear sky 16.280 16.280 16.280 31 1.78 m/h 0 %
08:00:00 clear sky 20.770 20.770 20.770 23 2.2 m/h 0 %
11:00:00 clear sky 29.540 29.540 29.540 13 2.01 m/h 0 %
14:00:00 clear sky 32.240 32.240 32.240 11 2.11 m/h 0 %
17:00:00 clear sky 26.400 26.400 26.400 16 0.77 m/h 0 %
20:00:00 clear sky 22.340 22.340 22.340 21 2.1 m/h 0 %
23:00:00 clear sky 19.320 19.320 19.320 25 1.89 m/h 0 %
30-Oct-2020 (Fri)
02:00:00 clear sky 17.340 17.340 17.340 28 0.94 m/h 0 %
05:00:00 clear sky 16.320 16.320 16.320 30 0.99 m/h 0 %
08:00:00 clear sky 20.990 20.990 20.990 23 0.87 m/h 0 %
11:00:00 clear sky 30.460 30.460 30.460 13 1.06 m/h 0 %
14:00:00 clear sky 32.710 32.710 32.710 11 3.19 m/h 0 %
17:00:00 clear sky 27.300 27.300 27.300 15 3.14 m/h 0 %
20:00:00 clear sky 20.960 20.960 20.960 21 3.56 m/h 0 %
23:00:00 clear sky 18.410 18.410 18.410 25 2.94 m/h 0 %
31-Oct-2020 (Sat)
02:00:00 clear sky 15.720 15.720 15.720 30 1.96 m/h 0 %
05:00:00 clear sky 14.320 14.320 14.320 33 1.6 m/h 0 %
08:00:00 clear sky 19.510 19.510 19.510 24 1.37 m/h 0 %
11:00:00 clear sky 28.710 28.710 28.710 13 2.04 m/h 0 %
14:00:00 clear sky 32.490 32.490 32.490 10 3.65 m/h 0 %
17:00:00 clear sky 26.740 26.740 26.740 14 3.06 m/h 0 %
20:00:00 clear sky 20.460 20.460 20.460 22 3.07 m/h 0 %
23:00:00 clear sky 18.200 18.200 18.200 25 2.11 m/h 0 %
01-Nov-2020 (Sun)
02:00:00 clear sky 15.880 15.880 15.880 28 1.67 m/h 0 %
05:00:00 clear sky 14.280 14.280 14.280 32 1 m/h 0 %
08:00:00 clear sky 19.130 19.130 19.130 25 0.63 m/h 0 %
11:00:00 clear sky 28.250 28.250 28.250 14 1.36 m/h 0 %
14:00:00 clear sky 31.520 31.520 31.520 11 3.58 m/h 0 %
17:00:00 clear sky 24.860 24.860 24.860 16 1.31 m/h 0 %
20:00:00 clear sky 20.280 20.280 20.280 22 1.16 m/h 0 %
23:00:00 clear sky 18.440 18.440 18.440 26 1.55 m/h 0 %
02-Nov-2020 (Mon)
02:00:00 clear sky 16.460 16.460 16.460 29 0.76 m/h 0 %
05:00:00 clear sky 15.740 15.740 15.740 32 1.17 m/h 0 %

Famous Cities (60)